Time;durP1;ratioP1;P1;durP2;ratioP2;P2;SDS_P1;SDS_P2;PMS_P1;PMS_P2;Temp;Humidity;BMP_temperature;BMP_pressure;BME280_temperature;BME280_humidity;BME280_pressure;Samples;Min_cycle;Max_cycle;Signal;HPM_P1;HPM_P2
2021/01/10 00:00:24;;;;;;;;;;;23.60;87.80;;;;;;5033479;28;19910;-83
2021/01/10 00:02:50;;;;;;;;;;;23.60;84.30;;;;;;5016022;28;19910;-80
2021/01/10 00:05:21;;;;;;;;;;;23.50;83.00;;;;;;5033401;28;20360;-81
2021/01/10 00:07:48;;;;;;;;;;;23.60;84.00;;;;;;5053212;28;19913;-80
2021/01/10 00:10:15;;;;;;;;;;;23.80;83.50;;;;;;5039271;28;19913;-82
2021/01/10 00:12:42;;;;;;;;;;;23.90;83.60;;;;;;5033778;28;19971;-82
2021/01/10 00:15:10;;;;;;;;;;;24.20;84.40;;;;;;5015923;28;19952;-82
2021/01/10 00:17:37;;;;;;;;;;;24.40;85.90;;;;;;4998912;28;19952;-81
2021/01/10 00:20:06;;;;;;;;;;;24.40;86.10;;;;;;5031846;28;19917;-83
2021/01/10 00:22:32;;;;;;;;;;;24.30;86.60;;;;;;5028204;28;19953;-77
2021/01/10 00:24:59;;;;;;;;;;;24.20;87.00;;;;;;5013699;28;19909;-80
2021/01/10 00:27:29;;;;;;;;;;;24.30;88.10;;;;;;5020899;28;20352;-83
2021/01/10 00:29:58;;;;;;;;;;;24.50;88.20;;;;;;5012735;28;19916;-79
2021/01/10 00:32:28;;;;;;;;;;;24.50;87.40;;;;;;5027054;28;20469;-84
2021/01/10 00:34:54;;;;;;;;;;;24.50;87.60;;;;;;5018016;28;20285;-78
2021/01/10 00:37:21;;;;;;;;;;;24.70;87.60;;;;;;5017841;28;19975;-82
2021/01/10 00:39:52;;;;;;;;;;;24.80;87.00;;;;;;5015360;28;20269;-81
2021/01/10 00:42:18;;;;;;;;;;;24.60;87.80;;;;;;5034889;28;19921;-79
2021/01/10 00:44:46;;;;;;;;;;;24.70;86.80;;;;;;5033161;28;20360;-79
2021/01/10 00:47:13;;;;;;;;;;;24.90;87.60;;;;;;5049180;28;19925;-78
2021/01/10 00:49:46;;;;;;;;;;;25.10;85.50;;;;;;5068377;28;20385;-81
2021/01/10 00:52:13;;;;;;;;;;;25.40;85.00;;;;;;5052118;28;20332;-79
2021/01/10 00:54:40;;;;;;;;;;;25.70;83.70;;;;;;5014504;28;20008;-80
2021/01/10 00:57:10;;;;;;;;;;;26.20;81.70;;;;;;5032905;28;19909;-80
2021/01/10 00:59:39;;;;;;;;;;;26.50;80.70;;;;;;5031228;28;20335;-81
2021/01/10 01:02:06;;;;;;;;;;;26.50;79.70;;;;;;5032709;28;20008;-83
2021/01/10 01:04:33;;;;;;;;;;;26.80;79.60;;;;;;5032578;28;19983;-81
2021/01/10 01:07:00;;;;;;;;;;;27.20;76.70;;;;;;5019545;28;19913;-81
2021/01/10 01:09:27;;;;;;;;;;;27.20;77.80;;;;;;5032043;28;20000;-81
2021/01/10 01:11:53;;;;;;;;;;;27.60;76.50;;;;;;5031850;28;19913;-81
2021/01/10 01:14:20;;;;;;;;;;;27.70;76.90;;;;;;5031605;28;20363;-83
2021/01/10 01:16:47;;;;;;;;;;;27.80;74.40;;;;;;5014842;28;19952;-84
2021/01/10 01:19:13;;;;;;;;;;;27.90;73.50;;;;;;5029804;28;19917;-83
2021/01/10 01:21:40;;;;;;;;;;;28.20;73.90;;;;;;5004331;28;19913;-83
2021/01/10 01:24:11;;;;;;;;;;;27.80;73.70;;;;;;5017129;28;19992;-83
2021/01/10 01:26:38;;;;;;;;;;;27.90;72.30;;;;;;5029068;28;19913;-85
2021/01/10 01:29:21;;;;;;;;;;;28.10;73.20;;;;;;5036840;28;19917;-85
2021/01/10 01:31:47;;;;;;;;;;;28.40;71.90;;;;;;5017503;28;19913;-83
2021/01/10 01:34:14;;;;;;;;;;;28.50;70.80;;;;;;5036332;28;20315;-85
2021/01/10 01:36:41;;;;;;;;;;;28.50;70.20;;;;;;5036492;28;19967;-85
2021/01/10 01:39:07;;;;;;;;;;;28.20;71.60;;;;;;5036881;28;19936;-85
2021/01/10 01:41:38;;;;;;;;;;;28.40;70.00;;;;;;5035682;28;19962;-83
2021/01/10 01:44:05;;;;;;;;;;;28.40;69.00;;;;;;5034933;28;19913;-82
2021/01/10 01:46:36;;;;;;;;;;;28.20;69.50;;;;;;5018641;28;19939;-80
2021/01/10 01:49:04;;;;;;;;;;;28.40;69.10;;;;;;5034055;28;19914;-81
2021/01/10 01:51:31;;;;;;;;;;;28.50;68.60;;;;;;5034870;28;20391;-82
2021/01/10 01:54:02;;;;;;;;;;;28.30;69.10;;;;;;5039889;28;19980;-81
2021/01/10 01:56:29;;;;;;;;;;;28.60;68.90;;;;;;5036021;28;19913;-81
2021/01/10 01:58:56;;;;;;;;;;;28.70;67.30;;;;;;5036759;28;20048;-83
2021/01/10 02:01:24;;;;;;;;;;;28.30;68.00;;;;;;5036682;28;19913;-83
2021/01/10 02:03:55;;;;;;;;;;;27.80;69.20;;;;;;5036027;28;19913;-82
2021/01/10 02:06:24;;;;;;;;;;;27.20;69.30;;;;;;5021607;28;20004;-81
2021/01/10 02:08:53;;;;;;;;;;;26.90;70.20;;;;;;5040280;28;19920;-82
2021/01/10 02:11:22;;;;;;;;;;;26.70;71.00;;;;;;5039523;28;19917;-81
2021/01/10 02:13:48;;;;;;;;;;;26.50;69.80;;;;;;5035107;28;20015;-83
2021/01/10 02:16:17;;;;;;;;;;;26.50;69.50;;;;;;5017694;28;20292;-80
2021/01/10 02:18:44;;;;;;;;;;;26.50;68.90;;;;;;5021025;28;19960;-81
2021/01/10 02:21:11;;;;;;;;;;;26.50;67.30;;;;;;5034343;28;19960;-81
2021/01/10 02:23:43;;;;;;;;;;;26.40;67.80;;;;;;5034686;28;19924;-80
2021/01/10 02:26:10;;;;;;;;;;;26.30;67.50;;;;;;5035575;28;19940;-79
2021/01/10 02:28:37;;;;;;;;;;;26.50;65.90;;;;;;5035304;28;19967;-81
2021/01/10 02:31:04;;;;;;;;;;;26.50;67.70;;;;;;5034926;28;19964;-79
2021/01/10 02:33:31;;;;;;;;;;;26.50;67.50;;;;;;5034814;28;19928;-80
2021/01/10 02:35:58;;;;;;;;;;;26.50;66.80;;;;;;5034599;28;19962;-79
2021/01/10 02:38:44;;;;;;;;;;;26.30;66.00;;;;;;5039792;28;19910;-80
2021/01/10 02:41:17;;;;;;;;;;;26.30;66.70;;;;;;5037408;28;19921;-82
2021/01/10 02:43:57;;;;;;;;;;;26.10;66.80;;;;;;5035128;28;19910;-78
2021/01/10 02:46:25;;;;;;;;;;;26.10;66.20;;;;;;5040226;28;19919;-81
2021/01/10 02:48:52;;;;;;;;;;;26.10;65.50;;;;;;5036152;28;19909;-81
2021/01/10 02:51:19;;;;;;;;;;;26.20;68.80;;;;;;5034083;28;20364;-80
2021/01/10 02:53:47;;;;;;;;;;;26.20;69.40;;;;;;5033569;28;20369;-80
2021/01/10 02:56:13;;;;;;;;;;;26.20;70.30;;;;;;5035430;28;20001;-80
2021/01/10 02:58:41;;;;;;;;;;;26.10;70.40;;;;;;5047344;28;19908;-80
2021/01/10 03:01:09;;;;;;;;;;;25.80;70.00;;;;;;5037817;28;19914;-80
2021/01/10 03:03:36;;;;;;;;;;;25.90;72.40;;;;;;5034924;28;20382;-79
2021/01/10 03:06:03;;;;;;;;;;;26.00;70.80;;;;;;5017170;28;20368;-79
2021/01/10 03:08:32;;;;;;;;;;;26.10;71.40;;;;;;5034517;28;19913;-79
2021/01/10 03:10:59;;;;;;;;;;;26.10;70.70;;;;;;5036089;28;19913;-81
2021/01/10 03:13:29;;;;;;;;;;;26.10;71.50;;;;;;5018458;28;19921;-79
2021/01/10 03:15:55;;;;;;;;;;;26.10;71.40;;;;;;5016173;28;19967;-79
2021/01/10 03:18:23;;;;;;;;;;;26.00;71.10;;;;;;5016964;28;19920;-79
2021/01/10 03:20:50;;;;;;;;;;;26.00;72.00;;;;;;5034592;28;20003;-80
2021/01/10 03:23:16;;;;;;;;;;;25.80;70.20;;;;;;5015890;28;20394;-78
2021/01/10 03:25:44;;;;;;;;;;;25.80;71.50;;;;;;5034501;28;19913;-78
2021/01/10 03:28:10;;;;;;;;;;;25.80;71.10;;;;;;5033985;28;19914;-80
2021/01/10 03:30:37;;;;;;;;;;;25.70;70.70;;;;;;5034413;28;19948;-80
2021/01/10 03:33:08;;;;;;;;;;;25.60;71.90;;;;;;5015336;28;19924;-82
2021/01/10 03:35:35;;;;;;;;;;;25.70;70.90;;;;;;5019482;28;19944;-81
2021/01/10 03:38:03;;;;;;;;;;;25.80;72.30;;;;;;5016822;28;19999;-81
2021/01/10 03:40:30;;;;;;;;;;;25.80;70.60;;;;;;5034145;28;19967;-82
2021/01/10 03:43:00;;;;;;;;;;;25.70;72.60;;;;;;5032884;28;19920;-82
2021/01/10 03:45:27;;;;;;;;;;;25.70;71.20;;;;;;5033740;28;20387;-82
2021/01/10 03:47:54;;;;;;;;;;;25.70;72.20;;;;;;5034269;28;19944;-82
2021/01/10 03:50:21;;;;;;;;;;;25.80;70.30;;;;;;5017603;28;19936;-86
2021/01/10 03:52:51;;;;;;;;;;;25.70;70.50;;;;;;5033702;28;20280;-83
2021/01/10 03:55:18;;;;;;;;;;;25.80;70.40;;;;;;5033737;28;19943;-82
2021/01/10 03:57:44;;;;;;;;;;;25.80;70.50;;;;;;5033624;28;19913;-83
2021/01/10 04:00:11;;;;;;;;;;;25.60;72.20;;;;;;5033760;28;19924;-80
2021/01/10 04:02:38;;;;;;;;;;;25.50;72.30;;;;;;5036101;28;20390;-79
2021/01/10 04:05:05;;;;;;;;;;;25.60;70.40;;;;;;5033769;28;20455;-82
2021/01/10 04:07:35;;;;;;;;;;;25.60;72.20;;;;;;5016027;28;19945;-79
2021/01/10 04:10:01;;;;;;;;;;;25.70;71.20;;;;;;5031970;28;19913;-77
2021/01/10 04:12:30;;;;;;;;;;;25.70;71.90;;;;;;5033571;28;19917;-79
2021/01/10 04:14:56;;;;;;;;;;;25.80;71.00;;;;;;5033639;28;20368;-80
2021/01/10 04:17:25;;;;;;;;;;;25.80;70.40;;;;;;5017782;28;19948;-79
2021/01/10 04:19:55;;;;;;;;;;;25.80;71.70;;;;;;5014322;28;19969;-78
2021/01/10 04:22:22;;;;;;;;;;;25.70;72.00;;;;;;5014063;28;19916;-79
2021/01/10 04:24:48;;;;;;;;;;;25.60;72.40;;;;;;4995822;28;20277;-79
2021/01/10 04:27:15;;;;;;;;;;;25.40;73.90;;;;;;5013926;28;20356;-79
2021/01/10 04:29:42;;;;;;;;;;;25.40;74.60;;;;;;5015085;28;20316;-81
2021/01/10 04:32:11;;;;;;;;;;;25.50;74.40;;;;;;5013984;28;19996;-81
2021/01/10 04:34:38;;;;;;;;;;;25.50;74.80;;;;;;5018683;28;20006;-81
2021/01/10 04:37:04;;;;;;;;;;;25.30;76.00;;;;;;5033381;28;19913;-81
2021/01/10 04:39:31;;;;;;;;;;;25.20;75.60;;;;;;5014494;28;20245;-83
2021/01/10 04:41:58;;;;;;;;;;;25.30;76.10;;;;;;5032248;28;19913;-80
2021/01/10 04:44:25;;;;;;;;;;;25.30;76.20;;;;;;5032915;28;19955;-79
2021/01/10 04:46:51;;;;;;;;;;;25.30;74.20;;;;;;5023745;28;20419;-79
2021/01/10 04:49:22;;;;;;;;;;;25.20;74.70;;;;;;5013599;28;19920;-79
2021/01/10 04:51:49;;;;;;;;;;;25.30;75.80;;;;;;5007347;28;19917;-79
2021/01/10 04:54:16;;;;;;;;;;;25.30;76.50;;;;;;5029791;28;20352;-82
2021/01/10 04:56:43;;;;;;;;;;;25.20;75.90;;;;;;5031792;28;19925;-79
2021/01/10 04:59:10;;;;;;;;;;;25.10;75.40;;;;;;5031346;28;19921;-77
2021/01/10 05:01:48;;;;;;;;;;;25.10;74.90;;;;;;5014415;28;19920;-77
2021/01/10 05:04:16;;;;;;;;;;;25.20;75.40;;;;;;5033012;28;20443;-80
2021/01/10 05:06:45;;;;;;;;;;;25.30;77.40;;;;;;5029269;28;19913;-76
2021/01/10 05:09:12;;;;;;;;;;;25.20;75.70;;;;;;5012812;28;19952;-77
2021/01/10 05:11:38;;;;;;;;;;;25.10;76.30;;;;;;5017419;28;19913;-77
2021/01/10 05:14:05;;;;;;;;;;;25.00;76.60;;;;;;5033123;28;19964;-78
2021/01/10 05:16:33;;;;;;;;;;;25.00;76.00;;;;;;5032635;28;19921;-76
2021/01/10 05:19:00;;;;;;;;;;;25.00;76.00;;;;;;5032939;28;19909;-77
2021/01/10 05:21:27;;;;;;;;;;;25.00;77.90;;;;;;5032524;28;19913;-77
2021/01/10 05:23:58;;;;;;;;;;;25.00;78.70;;;;;;5032741;28;19909;-77
2021/01/10 05:26:35;;;;;;;;;;;25.10;79.20;;;;;;5032695;28;19920;-77
2021/01/10 05:29:05;;;;;;;;;;;25.10;77.20;;;;;;5026636;28;19917;-79
2021/01/10 05:31:32;;;;;;;;;;;25.10;78.20;;;;;;5032450;28;20332;-77
2021/01/10 05:33:59;;;;;;;;;;;25.00;78.10;;;;;;5032711;28;19935;-78
2021/01/10 05:36:32;;;;;;;;;;;25.00;80.10;;;;;;4997165;28;19956;-76
2021/01/10 05:39:14;;;;;;;;;;;25.00;78.90;;;;;;5013255;28;19921;-78
2021/01/10 05:41:51;;;;;;;;;;;24.90;77.30;;;;;;5014794;28;20382;-76
2021/01/10 05:44:19;;;;;;;;;;;24.70;77.20;;;;;;5024530;28;19913;-78
2021/01/10 05:46:46;;;;;;;;;;;24.70;78.20;;;;;;5016994;28;20016;-78
2021/01/10 05:49:20;;;;;;;;;;;24.80;79.00;;;;;;4995118;28;19909;-81
2021/01/10 05:51:47;;;;;;;;;;;24.80;78.40;;;;;;5012304;28;19920;-77
2021/01/10 05:54:32;;;;;;;;;;;24.70;76.90;;;;;;5018865;28;20367;-77
2021/01/10 05:56:58;;;;;;;;;;;24.60;78.10;;;;;;5032218;28;19914;-76
2021/01/10 05:59:26;;;;;;;;;;;24.60;79.40;;;;;;5031701;28;19980;-77
2021/01/10 06:01:56;;;;;;;;;;;24.80;78.60;;;;;;5032668;28;19916;-78
2021/01/10 06:04:24;;;;;;;;;;;24.80;78.80;;;;;;5032921;28;19992;-77
2021/01/10 06:06:51;;;;;;;;;;;24.70;79.90;;;;;;5054214;28;19909;-79
2021/01/10 06:09:18;;;;;;;;;;;24.80;79.50;;;;;;5043837;28;19913;-78
2021/01/10 06:11:44;;;;;;;;;;;24.70;78.20;;;;;;5031410;28;19917;-76
2021/01/10 06:14:18;;;;;;;;;;;24.60;79.30;;;;;;5040923;28;19944;-77
2021/01/10 06:16:51;;;;;;;;;;;24.60;80.50;;;;;;5039540;28;20379;-79
2021/01/10 06:19:20;;;;;;;;;;;24.50;80.50;;;;;;5038076;28;19913;-82
2021/01/10 06:21:48;;;;;;;;;;;24.40;80.30;;;;;;5013334;28;19917;-80
2021/01/10 06:24:19;;;;;;;;;;;24.40;81.40;;;;;;5056983;28;20011;-79
2021/01/10 06:26:48;;;;;;;;;;;24.40;80.80;;;;;;5056152;28;20113;-80
2021/01/10 06:29:17;;;;;;;;;;;24.30;81.40;;;;;;5055283;28;20291;-76
2021/01/10 06:31:46;;;;;;;;;;;24.40;82.40;;;;;;5055081;28;20015;-76
2021/01/10 06:34:13;;;;;;;;;;;24.30;82.10;;;;;;5054690;28;19923;-79
2021/01/10 06:36:41;;;;;;;;;;;24.30;82.80;;;;;;5037112;28;19948;-79
2021/01/10 06:39:10;;;;;;;;;;;24.20;84.30;;;;;;5054137;28;20244;-78
2021/01/10 06:41:36;;;;;;;;;;;24.20;84.60;;;;;;5052965;28;19954;-82
2021/01/10 06:44:04;;;;;;;;;;;24.20;83.90;;;;;;5017283;28;19910;-79
2021/01/10 06:46:31;;;;;;;;;;;24.20;83.60;;;;;;5011419;28;19925;-78
2021/01/10 06:49:00;;;;;;;;;;;24.20;83.60;;;;;;5013107;28;19920;-77
2021/01/10 06:51:30;;;;;;;;;;;24.20;84.10;;;;;;5012962;28;19940;-77
2021/01/10 06:53:57;;;;;;;;;;;24.10;84.50;;;;;;5031880;28;19921;-78
2021/01/10 06:56:24;;;;;;;;;;;24.10;84.10;;;;;;5032800;28;19999;-80
2021/01/10 06:59:04;;;;;;;;;;;24.10;84.20;;;;;;5019018;28;19921;-76
2021/01/10 07:01:53;;;;;;;;;;;24.10;83.20;;;;;;5018697;28;19952;-79
2021/01/10 07:04:20;;;;;;;;;;;24.10;84.90;;;;;;5025346;28;20327;-76
2021/01/10 07:06:47;;;;;;;;;;;24.10;85.10;;;;;;5014720;28;20008;-79
2021/01/10 07:09:15;;;;;;;;;;;23.90;85.10;;;;;;5032256;28;19917;-78
2021/01/10 07:11:42;;;;;;;;;;;24.00;84.90;;;;;;5032125;28;20360;-80
2021/01/10 07:14:12;;;;;;;;;;;23.90;84.80;;;;;;5031920;28;19948;-76
2021/01/10 07:16:40;;;;;;;;;;;24.00;84.70;;;;;;5030596;28;20370;-78
2021/01/10 07:19:07;;;;;;;;;;;23.90;84.80;;;;;;5031801;28;19913;-79
2021/01/10 07:21:37;;;;;;;;;;;23.80;86.10;;;;;;5032407;28;19917;-77
2021/01/10 07:24:16;;;;;;;;;;;23.80;85.80;;;;;;5031990;28;19913;-76
2021/01/10 07:26:47;;;;;;;;;;;23.70;83.80;;;;;;5032087;28;19909;-75
2021/01/10 07:29:29;;;;;;;;;;;23.60;86.30;;;;;;5030063;28;19913;-76
2021/01/10 07:31:59;;;;;;;;;;;23.60;86.80;;;;;;5030182;28;20436;-80
2021/01/10 07:34:27;;;;;;;;;;;23.50;86.60;;;;;;5032432;28;19925;-79
2021/01/10 07:36:57;;;;;;;;;;;23.50;86.70;;;;;;5031695;28;19924;-81
2021/01/10 07:39:25;;;;;;;;;;;23.50;85.90;;;;;;5031951;28;19945;-81
2021/01/10 07:41:53;;;;;;;;;;;23.60;85.90;;;;;;5031580;28;20007;-78
2021/01/10 07:44:21;;;;;;;;;;;23.60;86.10;;;;;;5030549;28;19966;-77
2021/01/10 07:46:54;;;;;;;;;;;23.50;86.00;;;;;;5012309;28;19971;-77
2021/01/10 07:49:22;;;;;;;;;;;23.50;87.00;;;;;;5030631;28;19922;-79
2021/01/10 07:51:49;;;;;;;;;;;23.50;88.00;;;;;;5027751;28;20405;-77
2021/01/10 07:54:16;;;;;;;;;;;23.50;87.50;;;;;;5031131;28;19921;-79
2021/01/10 07:56:43;;;;;;;;;;;23.50;86.70;;;;;;5013680;28;19971;-77
2021/01/10 07:59:16;;;;;;;;;;;23.40;86.80;;;;;;5031645;28;19917;-81
2021/01/10 08:01:52;;;;;;;;;;;23.30;86.60;;;;;;5015081;28;19914;-77
2021/01/10 08:04:34;;;;;;;;;;;23.30;88.40;;;;;;5011028;28;19913;-76
2021/01/10 08:07:03;;;;;;;;;;;23.30;89.50;;;;;;5016168;28;20256;-77
2021/01/10 08:09:31;;;;;;;;;;;23.30;89.10;;;;;;5032695;28;20016;-76
2021/01/10 08:11:58;;;;;;;;;;;23.20;89.10;;;;;;5032001;28;19999;-76
2021/01/10 08:14:26;;;;;;;;;;;23.10;89.30;;;;;;5032846;28;20340;-78
2021/01/10 08:16:52;;;;;;;;;;;23.20;89.90;;;;;;5032380;28;19913;-78
2021/01/10 08:19:19;;;;;;;;;;;23.20;89.80;;;;;;5032668;28;19964;-76
2021/01/10 08:21:46;;;;;;;;;;;23.10;90.10;;;;;;5014485;28;19913;-77
2021/01/10 08:24:15;;;;;;;;;;;23.10;89.90;;;;;;5032939;28;20368;-77
2021/01/10 08:26:42;;;;;;;;;;;23.10;90.30;;;;;;5015396;28;19916;-76
2021/01/10 08:29:10;;;;;;;;;;;23.00;90.40;;;;;;5032176;28;19920;-78
2021/01/10 08:31:38;;;;;;;;;;;23.00;90.50;;;;;;5018828;28;20000;-81
2021/01/10 08:34:06;;;;;;;;;;;23.00;90.60;;;;;;5032252;28;19921;-77
2021/01/10 08:36:33;;;;;;;;;;;23.00;90.90;;;;;;5033872;28;20379;-78
2021/01/10 08:39:21;;;;;;;;;;;23.00;90.90;;;;;;5015201;28;19920;-81
2021/01/10 08:41:49;;;;;;;;;;;22.90;91.30;;;;;;5022066;28;19921;-79
2021/01/10 08:44:18;;;;;;;;;;;22.80;91.20;;;;;;5032893;28;19913;-78
2021/01/10 08:46:48;;;;;;;;;;;22.70;91.50;;;;;;5029661;28;19921;-78
2021/01/10 08:49:19;;;;;;;;;;;22.70;91.60;;;;;;5027494;28;19913;-82
2021/01/10 08:51:49;;;;;;;;;;;22.60;91.80;;;;;;5031546;28;19913;-80
2021/01/10 08:54:15;;;;;;;;;;;22.60;91.80;;;;;;5032858;28;19921;-80
2021/01/10 08:56:43;;;;;;;;;;;22.50;91.70;;;;;;5031975;28;19920;-77
2021/01/10 08:59:10;;;;;;;;;;;22.50;92.00;;;;;;5032554;28;20028;-76
2021/01/10 09:01:37;;;;;;;;;;;22.50;91.90;;;;;;5012655;28;19963;-77
2021/01/10 09:04:05;;;;;;;;;;;22.50;92.40;;;;;;5031983;28;20428;-78
2021/01/10 09:06:32;;;;;;;;;;;22.40;92.60;;;;;;5031567;28;20035;-78
2021/01/10 09:09:01;;;;;;;;;;;22.40;92.90;;;;;;5032268;28;19939;-78
2021/01/10 09:11:30;;;;;;;;;;;22.40;93.20;;;;;;5032171;28;20217;-82
2021/01/10 09:13:58;;;;;;;;;;;22.30;93.40;;;;;;5032741;28;20375;-78
2021/01/10 09:16:25;;;;;;;;;;;22.30;93.70;;;;;;5032744;28;20008;-76
2021/01/10 09:18:54;;;;;;;;;;;22.40;93.80;;;;;;5013874;28;20368;-79
2021/01/10 09:21:26;;;;;;;;;;;22.30;93.80;;;;;;5032257;28;19913;-80
2021/01/10 09:23:53;;;;;;;;;;;22.30;93.90;;;;;;5015497;28;20433;-77
2021/01/10 09:26:30;;;;;;;;;;;22.30;93.80;;;;;;5033981;28;19913;-80
2021/01/10 09:28:57;;;;;;;;;;;22.30;94.10;;;;;;5032418;28;19921;-82
2021/01/10 09:31:41;;;;;;;;;;;22.30;94.00;;;;;;5031976;28;19913;-78
2021/01/10 09:34:08;;;;;;;;;;;22.30;94.00;;;;;;5027098;28;19931;-79
2021/01/10 09:36:35;;;;;;;;;;;22.30;94.10;;;;;;5032082;28;19913;-79
2021/01/10 09:39:01;;;;;;;;;;;22.20;94.30;;;;;;5031979;28;19913;-77
2021/01/10 09:41:28;;;;;;;;;;;22.20;94.30;;;;;;5014190;28;20003;-80
2021/01/10 09:43:56;;;;;;;;;;;22.20;94.50;;;;;;5035387;28;19916;-81
2021/01/10 09:46:22;;;;;;;;;;;22.20;94.50;;;;;;5014229;28;19964;-78
2021/01/10 09:48:52;;;;;;;;;;;22.10;94.60;;;;;;4998950;28;19988;-80
2021/01/10 09:51:20;;;;;;;;;;;22.10;94.90;;;;;;5001794;28;20357;-78
2021/01/10 09:53:49;;;;;;;;;;;22.10;94.50;;;;;;5006750;28;19925;-76
2021/01/10 09:56:34;;;;;;;;;;;22.10;94.70;;;;;;5003108;28;19920;-77
2021/01/10 09:59:01;;;;;;;;;;;22.10;94.70;;;;;;5004289;28;20030;-81
2021/01/10 10:01:40;;;;;;;;;;;22.00;95.00;;;;;;5000101;28;20341;-80
2021/01/10 10:04:06;;;;;;;;;;;22.00;94.80;;;;;;5001255;28;20324;-83
2021/01/10 10:06:49;;;;;;;;;;;22.00;94.70;;;;;;4995013;28;19964;-79
2021/01/10 10:09:15;;;;;;;;;;;22.00;94.80;;;;;;4996670;28;19965;-81
2021/01/10 10:11:42;;;;;;;;;;;22.00;94.90;;;;;;4996078;28;19914;-78
2021/01/10 10:14:09;;;;;;;;;;;21.90;94.90;;;;;;4996117;28;20012;-78
2021/01/10 10:16:38;;;;;;;;;;;21.90;95.00;;;;;;4995645;28;19922;-78
2021/01/10 10:19:05;;;;;;;;;;;21.90;95.10;;;;;;4995781;28;19914;-77
2021/01/10 10:21:32;;;;;;;;;;;21.90;95.10;;;;;;4993329;28;19921;-80
2021/01/10 10:23:59;;;;;;;;;;;21.90;95.10;;;;;;4991975;28;19918;-79
2021/01/10 10:26:26;;;;;;;;;;;21.80;95.30;;;;;;5001391;28;19941;-79
2021/01/10 10:28:52;;;;;;;;;;;21.80;95.30;;;;;;5002692;28;19914;-80
2021/01/10 10:31:24;;;;;;;;;;;21.80;95.40;;;;;;4996054;28;19964;-78
2021/01/10 10:33:55;;;;;;;;;;;21.80;95.50;;;;;;4995293;28;19921;-78
2021/01/10 10:36:23;;;;;;;;;;;21.80;95.40;;;;;;4995693;28;19914;-79
2021/01/10 10:38:50;;;;;;;;;;;21.80;95.50;;;;;;4995175;28;19914;-79
2021/01/10 10:41:18;;;;;;;;;;;21.70;95.60;;;;;;4994780;28;19914;-80
2021/01/10 10:43:44;;;;;;;;;;;21.70;95.70;;;;;;4995263;28;19920;-79
2021/01/10 10:46:11;;;;;;;;;;;21.70;95.70;;;;;;5001540;28;20352;-81
2021/01/10 10:48:38;;;;;;;;;;;21.70;96.00;;;;;;5034826;28;20063;-81
2021/01/10 10:51:05;;;;;;;;;;;21.70;96.00;;;;;;5039720;28;19936;-81
2021/01/10 10:53:32;;;;;;;;;;;21.60;96.30;;;;;;5033600;28;20020;-79
2021/01/10 10:55:59;;;;;;;;;;;21.70;96.10;;;;;;5034549;28;19917;-78
2021/01/10 10:58:25;;;;;;;;;;;21.70;96.10;;;;;;5016238;28;19920;-79
2021/01/10 11:00:53;;;;;;;;;;;21.60;96.00;;;;;;5034704;28;19913;-82
2021/01/10 11:03:19;;;;;;;;;;;21.70;96.10;;;;;;5034536;28;20320;-79
2021/01/10 11:05:46;;;;;;;;;;;21.70;96.10;;;;;;5034401;28;19975;-79
2021/01/10 11:08:13;;;;;;;;;;;21.70;96.10;;;;;;5033792;28;20249;-79
2021/01/10 11:10:39;;;;;;;;;;;21.60;96.20;;;;;;5034260;28;19913;-79
2021/01/10 11:13:06;;;;;;;;;;;21.60;96.10;;;;;;5034119;28;20356;-78
2021/01/10 11:15:33;;;;;;;;;;;21.60;96.20;;;;;;5020647;28;20296;-80
2021/01/10 11:18:00;;;;;;;;;;;21.60;96.20;;;;;;5039123;28;20012;-81
2021/01/10 11:20:26;;;;;;;;;;;21.60;96.10;;;;;;5034728;28;19927;-79
2021/01/10 11:22:53;;;;;;;;;;;21.60;96.10;;;;;;5016404;28;20315;-82
2021/01/10 11:25:20;;;;;;;;;;;21.60;96.20;;;;;;5034162;28;19916;-81
2021/01/10 11:27:46;;;;;;;;;;;21.50;96.20;;;;;;5034030;28;19909;-82
2021/01/10 11:30:13;;;;;;;;;;;21.50;96.30;;;;;;5034594;28;19955;-81
2021/01/10 11:32:43;;;;;;;;;;;21.50;96.40;;;;;;5033652;28;19928;-79
2021/01/10 11:35:10;;;;;;;;;;;21.50;96.40;;;;;;5030789;28;20011;-79
2021/01/10 11:37:38;;;;;;;;;;;21.50;96.40;;;;;;5034225;28;19909;-82
2021/01/10 11:40:05;;;;;;;;;;;21.50;96.40;;;;;;5034235;28;19975;-79
2021/01/10 11:42:32;;;;;;;;;;;21.50;96.40;;;;;;5033911;28;19936;-79
2021/01/10 11:45:01;;;;;;;;;;;21.50;96.50;;;;;;5015899;28;20268;-80
2021/01/10 11:47:28;;;;;;;;;;;21.40;96.40;;;;;;5033682;28;19921;-81
2021/01/10 11:49:54;;;;;;;;;;;21.50;96.50;;;;;;5033829;28;19945;-80
2021/01/10 11:52:21;;;;;;;;;;;21.40;96.50;;;;;;5032940;28;19936;-79
2021/01/10 11:54:48;;;;;;;;;;;21.40;96.60;;;;;;5033493;28;20354;-80
2021/01/10 11:57:14;;;;;;;;;;;21.40;96.60;;;;;;5036298;28;19913;-78
2021/01/10 11:59:41;;;;;;;;;;;21.40;96.60;;;;;;5042618;28;19913;-78
2021/01/10 12:02:08;;;;;;;;;;;21.40;96.70;;;;;;5042404;28;19915;-79
2021/01/10 12:04:34;;;;;;;;;;;21.30;96.80;;;;;;5018430;28;19959;-78
2021/01/10 12:07:01;;;;;;;;;;;21.40;96.90;;;;;;5033110;28;19909;-77
2021/01/10 12:09:28;;;;;;;;;;;21.30;96.90;;;;;;5032794;28;19913;-79
2021/01/10 12:11:54;;;;;;;;;;;21.30;97.00;;;;;;5033100;28;20375;-80
2021/01/10 12:14:21;;;;;;;;;;;21.30;97.00;;;;;;5033680;28;19967;-77
2021/01/10 12:16:48;;;;;;;;;;;21.30;97.20;;;;;;5014909;28;20332;-78
2021/01/10 12:19:17;;;;;;;;;;;21.30;97.20;;;;;;5033139;28;19963;-82
2021/01/10 12:21:48;;;;;;;;;;;21.20;97.40;;;;;;5032790;28;19917;-81
2021/01/10 12:24:15;;;;;;;;;;;21.20;97.40;;;;;;5033047;28;19909;-79
2021/01/10 12:26:41;;;;;;;;;;;21.20;97.50;;;;;;5033396;28;19910;-80
2021/01/10 12:29:08;;;;;;;;;;;21.20;97.60;;;;;;5015401;28;20368;-79
2021/01/10 12:31:35;;;;;;;;;;;21.20;97.70;;;;;;5031234;28;19913;-79
2021/01/10 12:34:01;;;;;;;;;;;21.10;97.60;;;;;;5031560;28;19933;-79
2021/01/10 12:36:28;;;;;;;;;;;21.10;97.70;;;;;;5033804;28;19913;-81
2021/01/10 12:38:55;;;;;;;;;;;21.10;97.80;;;;;;5031507;28;20343;-78
2021/01/10 12:41:21;;;;;;;;;;;21.10;97.80;;;;;;5032787;28;19922;-78
2021/01/10 12:43:48;;;;;;;;;;;21.10;97.80;;;;;;5033326;28;19917;-79
2021/01/10 12:46:14;;;;;;;;;;;21.20;97.80;;;;;;5032606;28;19913;-81
2021/01/10 12:48:41;;;;;;;;;;;21.10;97.80;;;;;;5032824;28;19929;-81
2021/01/10 12:51:08;;;;;;;;;;;21.10;97.80;;;;;;5031863;28;19921;-81
2021/01/10 12:53:34;;;;;;;;;;;21.10;97.80;;;;;;5032853;28;20225;-84
2021/01/10 12:56:01;;;;;;;;;;;21.10;97.80;;;;;;5033173;28;19909;-81
2021/01/10 12:58:28;;;;;;;;;;;21.10;97.80;;;;;;5033083;28;19916;-79
2021/01/10 13:00:54;;;;;;;;;;;21.10;97.80;;;;;;5033327;28;19909;-80
2021/01/10 13:03:21;;;;;;;;;;;21.10;97.80;;;;;;5032823;28;19910;-82
2021/01/10 13:05:48;;;;;;;;;;;21.10;97.90;;;;;;5031597;28;19921;-78
2021/01/10 13:08:14;;;;;;;;;;;21.10;98.00;;;;;;5031840;28;20007;-80
2021/01/10 13:10:41;;;;;;;;;;;21.10;97.90;;;;;;5015351;28;20295;-79
2021/01/10 13:13:08;;;;;;;;;;;21.00;98.10;;;;;;5032366;28;19921;-79
2021/01/10 13:15:35;;;;;;;;;;;21.00;98.10;;;;;;5034789;28;19921;-79
2021/01/10 13:18:03;;;;;;;;;;;21.00;98.10;;;;;;5036798;28;20311;-79
2021/01/10 13:20:29;;;;;;;;;;;21.00;98.10;;;;;;5036232;28;20450;-79
2021/01/10 13:22:57;;;;;;;;;;;21.00;98.10;;;;;;5036656;28;19913;-79
2021/01/10 13:25:23;;;;;;;;;;;21.00;98.20;;;;;;5035889;28;19913;-77
2021/01/10 13:27:50;;;;;;;;;;;21.00;98.10;;;;;;5036815;28;19959;-79
2021/01/10 13:30:17;;;;;;;;;;;21.00;98.10;;;;;;5035774;28;19920;-79
2021/01/10 13:32:44;;;;;;;;;;;21.10;98.10;;;;;;5036398;28;20379;-80
2021/01/10 13:35:11;;;;;;;;;;;21.00;98.10;;;;;;5036121;28;20407;-79
2021/01/10 13:37:39;;;;;;;;;;;21.10;98.20;;;;;;5034777;28;19913;-81
2021/01/10 13:40:06;;;;;;;;;;;21.10;98.10;;;;;;5036337;28;19920;-80
2021/01/10 13:42:32;;;;;;;;;;;21.10;98.10;;;;;;5036387;28;19911;-81
2021/01/10 13:44:59;;;;;;;;;;;21.10;98.20;;;;;;5036502;28;20271;-82
2021/01/10 13:47:25;;;;;;;;;;;21.10;98.20;;;;;;5035775;28;19921;-82
2021/01/10 13:49:52;;;;;;;;;;;21.10;98.20;;;;;;5036440;28;19909;-81
2021/01/10 13:52:19;;;;;;;;;;;21.10;98.10;;;;;;5036227;28;19925;-81
2021/01/10 13:54:45;;;;;;;;;;;21.10;98.10;;;;;;5036278;28;19917;-80
2021/01/10 13:57:13;;;;;;;;;;;21.20;97.90;;;;;;5036127;28;19913;-79
2021/01/10 13:59:40;;;;;;;;;;;21.20;97.80;;;;;;5036138;28;19909;-80
2021/01/10 14:02:06;;;;;;;;;;;21.20;98.00;;;;;;5035613;28;20275;-80
2021/01/10 14:04:33;;;;;;;;;;;21.30;97.70;;;;;;5036154;28;19909;-80
2021/01/10 14:07:00;;;;;;;;;;;21.30;97.50;;;;;;5035214;28;20295;-80
2021/01/10 14:09:26;;;;;;;;;;;21.20;97.60;;;;;;5035788;28;19959;-82
2021/01/10 14:11:53;;;;;;;;;;;21.20;97.50;;;;;;5036329;28;19909;-80
2021/01/10 14:14:20;;;;;;;;;;;21.20;97.60;;;;;;5035457;28;19928;-81
2021/01/10 14:16:46;;;;;;;;;;;21.20;97.60;;;;;;5035294;28;19928;-82
2021/01/10 14:19:13;;;;;;;;;;;21.10;97.90;;;;;;5035773;28;19948;-80
2021/01/10 14:21:40;;;;;;;;;;;21.10;97.70;;;;;;5035874;28;19996;-81